Terminal Aerodrome Forecast
Issued by NWS Wakefield, VA

Home | Current Version | Previous Version | Text Only | Print | Product List | Glossary On
Versions: 1 2 3 4 5 6 7 8 9 10 11 12 13 14 15 16 17 18 19 20 21 22
000
FTUS41 KAKQ 281100
TAFSBY
TAF
KSBY 281131Z 2812/2912 31007KT P6SM SKC
     FM281400 32013G21KT P6SM FEW050 SCT250
     FM290000 VRB02KT P6SM BKN150=

USA.gov is the U.S. government's official web portal to all federal, state and local government web resources and services.